Time;durP1;ratioP1;P1;durP2;ratioP2;P2;SDS_P1;SDS_P2;PMS_P1;PMS_P2;Temp;Humidity;BMP_temperature;BMP_pressure;BME280_temperature;BME280_humidity;BME280_pressure;Samples;Min_cycle;Max_cycle;Signal;HPM_P1;HPM_P2
2022/05/28 00:00:09;;;;;;;6.37;1.90;;;;;;;8.22;98.41;101392.47;673939;29;1136;-79
2022/05/28 00:00:30;;;;;;;5.00;1.80;;;;;;;8.21;97.37;101390.75;673426;29;1417;-78
2022/05/28 00:00:53;;;;;;;5.23;1.87;;;;;;;8.24;96.61;101387.28;676441;29;1335;-79
2022/05/28 00:01:17;;;;;;;6.47;1.73;;;;;;;8.26;97.21;101388.19;677334;29;1472;-79
2022/05/28 00:01:38;;;;;;;5.93;1.80;;;;;;;8.28;97.13;101386.47;677929;29;4414;-78
2022/05/28 00:01:59;;;;;;;5.32;1.80;;;;;;;8.28;97.82;101391.69;680372;29;1335;-79
2022/05/28 00:02:19;;;;;;;8.10;2.30;;;;;;;8.28;97.87;101383.88;681540;29;1769;-78
2022/05/28 00:02:40;;;;;;;6.27;2.17;;;;;;;8.27;96.89;101385.63;680898;29;1528;-78
2022/05/28 00:03:03;;;;;;;5.85;1.75;;;;;;;8.26;96.39;101381.25;677788;29;1746;-78
2022/05/28 00:03:24;;;;;;;5.78;1.83;;;;;;;8.23;97.24;101385.53;672111;29;1599;-78
2022/05/28 00:03:46;;;;;;;7.03;2.03;;;;;;;8.19;97.80;101377.66;678282;29;1473;-78
2022/05/28 00:04:07;;;;;;;6.40;2.10;;;;;;;8.19;97.12;101376.78;676498;29;1381;-79
2022/05/28 00:04:29;;;;;;;6.35;2.00;;;;;;;8.19;96.82;101380.25;680114;28;4341;-79
2022/05/28 00:04:50;;;;;;;5.78;1.92;;;;;;;8.18;97.25;101380.25;680463;28;1404;-78
2022/05/28 00:05:11;;;;;;;6.05;1.80;;;;;;;8.16;98.08;101384.56;680510;28;1871;-78
2022/05/28 00:05:33;;;;;;;7.80;2.00;;;;;;;8.17;97.65;101379.38;678284;29;1310;-77
2022/05/28 00:05:54;;;;;;;7.95;1.90;;;;;;;8.12;99.03;101381.00;676828;29;1446;-77
2022/05/28 00:06:22;;;;;;;7.05;1.70;;;;;;;8.09;98.90;101380.97;677611;29;870;-78
2022/05/28 00:06:44;;;;;;;6.13;2.03;;;;;;;8.11;99.05;101383.59;682265;28;1347;-78
2022/05/28 00:07:05;;;;;;;6.38;2.10;;;;;;;8.14;97.91;101381.94;679975;29;1915;-77
2022/05/28 00:07:25;;;;;;;6.53;2.00;;;;;;;8.18;98.00;101377.63;677238;29;4441;-78
2022/05/28 00:07:46;;;;;;;6.43;1.95;;;;;;;8.22;98.11;101378.56;676840;29;1465;-78
2022/05/28 00:08:07;;;;;;;6.63;1.80;;;;;;;8.25;98.66;101376.00;677266;29;1297;-78
2022/05/28 00:08:28;;;;;;;6.50;2.03;;;;;;;8.25;98.34;101371.69;674921;29;1680;-78
2022/05/28 00:08:49;;;;;;;8.18;2.40;;;;;;;8.26;98.30;101373.44;672860;29;1550;-78
2022/05/28 00:09:10;;;;;;;7.05;2.03;;;;;;;8.29;98.98;101377.81;674501;29;1349;-78
2022/05/28 00:09:31;;;;;;;6.30;1.90;;;;;;;8.31;99.06;101381.34;674163;29;1611;-78
2022/05/28 00:09:51;;;;;;;7.78;2.10;;;;;;;8.30;97.75;101372.63;674105;29;923;-78
2022/05/28 00:10:15;;;;;;;8.10;2.00;;;;;;;8.30;97.73;101379.56;675833;29;1318;-78
2022/05/28 00:10:35;;;;;;;7.05;2.17;;;;;;;8.30;97.41;101371.75;676865;29;4301;-78
2022/05/28 00:10:58;;;;;;;7.10;2.03;;;;;;;8.23;99.08;101378.59;678688;29;1253;-78
2022/05/28 00:11:23;;;;;;;5.88;1.98;;;;;;;8.21;99.24;101369.00;678873;29;1209;-78
2022/05/28 00:11:44;;;;;;;7.05;1.95;;;;;;;8.19;98.69;101369.84;676860;29;1382;-76
2022/05/28 00:12:06;;;;;;;8.50;2.20;;;;;;;8.23;97.62;101369.91;674027;29;1870;-78
2022/05/28 00:12:29;;;;;;;7.15;1.98;;;;;;;8.26;97.43;101357.81;672176;29;1211;-78
2022/05/28 00:12:50;;;;;;;5.43;2.08;;;;;;;8.30;98.08;101366.56;677371;29;1335;-78
2022/05/28 00:13:11;;;;;;;5.82;1.98;;;;;;;8.32;98.72;101364.84;676569;29;1669;-78
2022/05/28 00:13:31;;;;;;;6.75;2.10;;;;;;;8.32;99.57;101362.22;676188;29;4294;-78
2022/05/28 00:13:53;;;;;;;6.28;2.10;;;;;;;8.31;99.44;101368.31;675138;29;1471;-78
2022/05/28 00:14:13;;;;;;;6.60;2.10;;;;;;;8.33;98.49;101364.00;676892;29;1848;-78
2022/05/28 00:14:33;;;;;;;5.72;2.10;;;;;;;8.35;97.57;101360.56;674694;29;1569;-78
2022/05/28 00:14:55;;;;;;;5.40;1.90;;;;;;;8.35;97.22;101357.09;676974;29;1436;-78
2022/05/28 00:15:16;;;;;;;7.88;2.20;;;;;;;8.36;96.70;101366.63;674746;29;1555;-78
2022/05/28 00:15:36;;;;;;;6.03;2.73;;;;;;;8.40;96.50;101360.63;674615;29;1731;-78
2022/05/28 00:15:57;;;;;;;5.27;2.27;;;;;;;8.40;97.39;101360.63;674084;29;1206;-78
2022/05/28 00:16:18;;;;;;;6.05;2.40;;;;;;;8.40;96.86;101359.75;677131;29;1319;-78
2022/05/28 00:16:39;;;;;;;5.95;2.30;;;;;;;8.41;96.98;101366.72;674379;29;4321;-78
2022/05/28 00:17:00;;;;;;;6.80;2.55;;;;;;;8.40;97.92;101363.22;674820;29;1246;-78
2022/05/28 00:17:20;;;;;;;6.07;2.07;;;;;;;8.40;98.84;101363.22;674984;29;1311;-79
2022/05/28 00:17:41;;;;;;;5.80;2.30;;;;;;;8.42;97.76;101363.25;676451;29;1206;-78
2022/05/28 00:18:02;;;;;;;5.80;2.25;;;;;;;8.40;98.05;101355.41;671894;29;1369;-78
2022/05/28 00:18:22;;;;;;;6.95;2.20;;;;;;;8.32;99.12;101357.00;672927;29;1585;-78
2022/05/28 00:18:43;;;;;;;6.50;2.40;;;;;;;8.32;98.19;101347.50;671841;29;1302;-78
2022/05/28 00:19:05;;;;;;;6.15;2.40;;;;;;;8.35;98.75;101355.34;672586;29;1166;-78
2022/05/28 00:19:26;;;;;;;5.93;2.33;;;;;;;8.37;97.49;101352.75;672566;29;4520;-78
2022/05/28 00:19:46;;;;;;;8.10;2.30;;;;;;;8.33;99.00;101356.19;670461;29;1512;-78
2022/05/28 00:20:07;;;;;;;9.15;2.35;;;;;;;8.33;98.16;101354.47;671045;29;4562;-78
2022/05/28 00:20:28;;;;;;;7.30;2.38;;;;;;;8.37;96.34;101355.38;672463;29;1285;-78
2022/05/28 00:20:49;;;;;;;7.32;2.33;;;;;;;8.38;96.72;101351.91;676052;29;1284;-78
2022/05/28 00:21:11;;;;;;;6.63;1.97;;;;;;;8.39;98.35;101356.28;680912;29;1385;-78
2022/05/28 00:21:32;;;;;;;5.78;1.80;;;;;;;8.36;99.16;101358.81;677262;29;1335;-78
2022/05/28 00:21:52;;;;;;;7.65;1.92;;;;;;;8.39;96.54;101353.69;672435;29;1904;-78
2022/05/28 00:22:12;;;;;;;6.27;1.73;;;;;;;8.42;96.82;101355.44;672671;29;1580;-78
2022/05/28 00:22:43;;;;;;;6.53;1.90;;;;;;;8.43;96.78;101352.88;673514;29;5255;-77
2022/05/28 00:23:04;;;;;;;4.38;1.70;;;;;;;8.43;97.05;101352.88;675340;29;1589;-78
2022/05/28 00:23:24;;;;;;;4.70;1.60;;;;;;;8.46;96.47;101355.56;677770;29;1475;-78
2022/05/28 00:23:45;;;;;;;6.83;2.20;;;;;;;8.47;97.72;101353.81;677503;29;1255;-78
2022/05/28 00:24:06;;;;;;;6.82;1.90;;;;;;;8.48;98.52;101347.75;676710;29;1410;-78
2022/05/28 00:24:27;;;;;;;7.65;2.08;;;;;;;8.49;97.67;101357.34;674205;29;1358;-78
2022/05/28 00:24:47;;;;;;;8.00;1.98;;;;;;;8.48;97.53;101359.03;674628;29;1036;-78
2022/05/28 00:25:10;;;;;;;6.88;2.17;;;;;;;8.50;96.08;101349.53;674694;29;1279;-80
2022/05/28 00:25:30;;;;;;;8.27;2.33;;;;;;;8.51;96.42;101348.69;672230;29;4367;-78
2022/05/28 00:25:50;;;;;;;6.75;2.13;;;;;;;8.45;98.25;101348.56;674858;29;1189;-78
2022/05/28 00:26:13;;;;;;;5.20;2.40;;;;;;;8.39;98.21;101353.69;674551;29;1152;-78
2022/05/28 00:26:33;;;;;;;5.45;2.00;;;;;;;8.34;98.48;101350.97;674600;29;1766;-78
2022/05/28 00:26:53;;;;;;;5.38;1.88;;;;;;;8.31;98.95;101352.69;671934;29;1919;-78
2022/05/28 00:27:14;;;;;;;8.03;1.80;;;;;;;8.29;98.99;101349.16;672193;29;1462;-78
2022/05/28 00:27:34;;;;;;;6.35;1.60;;;;;;;8.31;99.25;101355.28;672104;29;1285;-78
2022/05/28 00:27:54;;;;;;;5.13;1.57;;;;;;;8.29;98.96;101351.78;671662;29;2213;-78
2022/05/28 00:28:15;;;;;;;5.17;1.50;;;;;;;8.29;98.71;101347.44;672005;29;1255;-78
2022/05/28 00:28:37;;;;;;;6.25;1.83;;;;;;;8.29;98.88;101352.66;673374;29;4354;-78
2022/05/28 00:28:58;;;;;;;6.60;2.10;;;;;;;8.29;99.63;101339.63;671832;29;1325;-78
2022/05/28 00:29:18;;;;;;;6.82;1.92;;;;;;;8.29;99.28;101346.56;677013;29;1440;-79
2022/05/28 00:29:38;;;;;;;7.23;2.10;;;;;;;8.30;99.18;101345.72;677213;29;1448;-78
2022/05/28 00:29:59;;;;;;;5.00;2.00;;;;;;;8.28;98.60;101344.78;676911;29;1377;-78
2022/05/28 00:30:20;;;;;;;6.43;2.20;;;;;;;8.23;98.47;101341.25;676996;29;2236;-78
2022/05/28 00:30:41;;;;;;;7.22;2.17;;;;;;;8.24;99.12;101343.00;674493;29;1160;-78
2022/05/28 00:31:02;;;;;;;6.70;1.90;;;;;;;8.23;99.15;101344.72;676860;29;1334;-78
2022/05/28 00:31:22;;;;;;;6.65;1.88;;;;;;;8.27;98.13;101343.06;672765;29;4531;-79
2022/05/28 00:31:42;;;;;;;5.65;1.90;;;;;;;8.30;97.85;101335.28;670668;29;1444;-78
2022/05/28 00:32:04;;;;;;;5.90;1.77;;;;;;;8.30;99.05;101340.50;672125;29;1739;-78
2022/05/28 00:32:24;;;;;;;6.70;1.90;;;;;;;8.30;99.18;101341.38;676117;29;1309;-78
2022/05/28 00:32:45;;;;;;;5.63;1.70;;;;;;;8.33;98.46;101337.94;676421;29;1655;-78
2022/05/28 00:33:06;;;;;;;6.63;1.80;;;;;;;8.30;98.59;101340.50;673361;29;1630;-78
2022/05/28 00:33:27;;;;;;;6.60;2.00;;;;;;;8.31;98.69;101342.25;675145;29;873;-79
2022/05/28 00:33:48;;;;;;;5.18;1.83;;;;;;;8.31;98.97;101344.88;676124;29;1645;-78
2022/05/28 00:34:08;;;;;;;5.90;1.80;;;;;;;8.29;98.11;101343.94;674059;29;1230;-78
2022/05/28 00:34:29;;;;;;;6.23;1.73;;;;;;;8.28;97.99;101335.28;674033;29;4484;-79
2022/05/28 00:34:49;;;;;;;7.28;1.80;;;;;;;8.28;98.40;101342.19;676589;29;1297;-79
2022/05/28 00:35:14;;;;;;;7.13;1.95;;;;;;;8.25;98.78;101340.44;677064;29;1402;-79
2022/05/28 00:35:34;;;;;;;6.47;2.00;;;;;;;8.27;99.37;101350.88;673958;29;1101;-78
2022/05/28 00:35:54;;;;;;;6.83;1.90;;;;;;;8.25;98.47;101345.66;674974;29;1221;-78
2022/05/28 00:36:15;;;;;;;7.00;2.10;;;;;;;8.26;98.09;101343.91;671871;29;1596;-78
2022/05/28 00:36:35;;;;;;;5.43;1.67;;;;;;;8.28;98.14;101347.41;671582;29;1466;-78
2022/05/28 00:36:57;;;;;;;6.20;1.60;;;;;;;8.27;98.54;101349.13;677175;29;1242;-78
2022/05/28 00:37:17;;;;;;;5.90;1.58;;;;;;;8.31;97.67;101344.88;677355;29;1028;-78
2022/05/28 00:37:38;;;;;;;6.00;2.20;;;;;;;8.27;99.32;101343.94;678264;29;4327;-78
2022/05/28 00:37:58;;;;;;;8.13;2.03;;;;;;;8.27;99.30;101343.94;677149;29;1079;-78
2022/05/28 00:38:19;;;;;;;8.27;2.17;;;;;;;8.26;99.57;101346.50;676746;29;1847;-78
2022/05/28 00:38:41;;;;;;;7.15;1.88;;;;;;;8.28;98.82;101350.00;677128;29;1224;-77
2022/05/28 00:39:02;;;;;;;7.95;2.10;;;;;;;8.28;99.46;101344.78;679317;29;1380;-78
2022/05/28 00:39:25;;;;;;;5.97;1.95;;;;;;;8.30;99.51;101343.09;679967;29;1454;-78
2022/05/28 00:39:45;;;;;;;7.20;1.90;;;;;;;8.32;99.53;101344.00;680425;29;1164;-78
2022/05/28 00:40:09;;;;;;;6.03;1.87;;;;;;;8.34;97.53;101343.16;676814;29;1373;-78
2022/05/28 00:40:29;;;;;;;6.85;1.70;;;;;;;8.35;98.18;101344.94;678631;29;4289;-78
2022/05/28 00:40:53;;;;;;;5.73;1.63;;;;;;;8.30;98.81;101351.78;677447;29;1269;-78
2022/05/28 00:41:14;;;;;;;6.38;1.80;;;;;;;8.28;98.82;101345.69;682674;29;1348;-78
2022/05/28 00:41:35;;;;;;;6.23;1.90;;;;;;;8.29;98.92;101343.94;682526;29;1339;-78
2022/05/28 00:41:55;;;;;;;5.72;1.75;;;;;;;8.27;99.20;101353.50;682524;28;1324;-79
2022/05/28 00:42:16;;;;;;;6.07;1.85;;;;;;;8.25;99.59;101347.38;679266;29;1473;-79
2022/05/28 00:42:36;;;;;;;7.23;2.40;;;;;;;8.24;99.11;101349.09;673491;29;2218;-78
2022/05/28 00:42:59;;;;;;;9.38;2.60;;;;;;;8.22;100.00;101358.59;676849;29;1520;-78
2022/05/28 00:43:20;;;;;;;7.32;1.92;;;;;;;8.25;99.39;101348.25;669636;29;1366;-78
2022/05/28 00:43:44;;;;;;;8.10;1.80;;;;;;;8.28;99.31;101350.00;675646;29;4614;-78
2022/05/28 00:44:06;;;;;;;6.93;1.85;;;;;;;8.30;99.31;101350.91;676909;29;1516;-78
2022/05/28 00:44:26;;;;;;;7.30;1.80;;;;;;;8.32;99.10;101346.59;674649;29;1212;-78
2022/05/28 00:44:46;;;;;;;6.25;1.75;;;;;;;8.37;98.10;101349.28;677136;29;1328;-78
2022/05/28 00:45:08;;;;;;;7.20;1.90;;;;;;;8.39;97.89;101348.47;680107;28;1162;-78
2022/05/28 00:45:30;;;;;;;5.85;1.70;;;;;;;8.41;97.53;101351.09;682071;29;1510;-78
2022/05/28 00:45:57;;;;;;;6.05;1.90;;;;;;;8.43;97.98;101345.06;678673;29;1399;-78
2022/05/28 00:46:26;;;;;;;7.28;1.90;;;;;;;8.39;98.30;101345.88;676957;29;1107;-78
2022/05/28 00:46:47;;;;;;;6.85;1.95;;;;;;;8.35;98.17;101344.94;676849;29;6283;-78
2022/05/28 00:47:08;;;;;;;7.03;1.80;;;;;;;8.35;98.22;101341.47;673785;29;1977;-78
2022/05/28 00:47:28;;;;;;;6.22;1.70;;;;;;;8.32;97.70;101349.19;673310;29;1056;-77
2022/05/28 00:47:53;;;;;;;7.03;1.90;;;;;;;8.32;98.14;101342.28;676793;29;1484;-78
2022/05/28 00:48:27;;;;;;;5.82;1.83;;;;;;;8.34;97.80;101345.78;677481;29;881;-78
2022/05/28 00:48:55;;;;;;;6.85;1.88;;;;;;;8.39;97.69;101345.88;677557;29;1180;-78
2022/05/28 00:49:23;;;;;;;6.28;1.80;;;;;;;8.42;98.81;101352.81;678868;29;1826;-79
2022/05/28 00:49:44;;;;;;;6.80;1.90;;;;;;;8.42;98.06;101347.63;678866;29;6195;-78
2022/05/28 00:50:05;;;;;;;6.73;1.90;;;;;;;8.43;98.27;101350.28;677363;29;1386;-79
2022/05/28 00:50:25;;;;;;;4.53;1.75;;;;;;;8.45;98.74;101350.31;675001;29;1323;-77
2022/05/28 00:50:46;;;;;;;5.17;1.70;;;;;;;8.45;98.45;101339.91;672108;29;1210;-78
2022/05/28 00:51:11;;;;;;;6.97;1.83;;;;;;;8.45;97.93;101337.28;674382;29;1450;-77
2022/05/28 00:51:42;;;;;;;7.45;2.08;;;;;;;8.44;97.62;101348.53;677337;29;1221;-78
2022/05/28 00:52:07;;;;;;;6.15;1.88;;;;;;;8.44;97.66;101340.72;673591;29;870;-78
2022/05/28 00:52:27;;;;;;;6.63;1.77;;;;;;;8.43;97.82;101342.44;678126;29;4335;-78
2022/05/28 00:52:48;;;;;;;5.87;1.90;;;;;;;8.41;97.76;101338.94;678705;29;1162;-78
2022/05/28 00:53:08;;;;;;;6.22;1.73;;;;;;;8.40;98.21;101351.94;679131;29;1518;-78
2022/05/28 00:53:29;;;;;;;6.40;1.70;;;;;;;8.35;99.13;101352.75;679853;29;1705;-77
2022/05/28 00:53:50;;;;;;;5.00;1.70;;;;;;;8.35;99.23;101344.06;678321;29;1099;-78
2022/05/28 00:54:12;;;;;;;5.43;1.80;;;;;;;8.38;98.88;101348.41;675106;29;1362;-79
2022/05/28 00:54:38;;;;;;;5.78;1.90;;;;;;;8.40;98.90;101346.72;677842;29;1251;-78
2022/05/28 00:54:58;;;;;;;8.15;1.80;;;;;;;8.39;98.41;101343.25;679565;29;1226;-78
2022/05/28 00:55:19;;;;;;;8.57;1.80;;;;;;;8.35;99.45;101346.66;679760;29;1338;-78
2022/05/28 00:55:40;;;;;;;7.30;1.83;;;;;;;8.32;99.15;101341.38;681015;29;5075;-78
2022/05/28 00:56:03;;;;;;;5.72;1.58;;;;;;;8.31;99.50;101347.47;679100;29;1262;-78
2022/05/28 00:56:24;;;;;;;9.38;1.95;;;;;;;8.30;99.46;101343.09;681337;29;897;-78
2022/05/28 00:56:45;;;;;;;7.32;1.90;;;;;;;8.28;99.26;101344.78;681438;29;1345;-78
2022/05/28 00:57:06;;;;;;;6.68;1.80;;;;;;;8.26;98.44;101346.50;678947;29;1464;-78
2022/05/28 00:57:27;;;;;;;6.25;1.88;;;;;;;8.31;99.06;101344.88;682033;28;1387;-78
2022/05/28 00:57:47;;;;;;;7.00;1.92;;;;;;;8.33;99.54;101343.16;682547;28;1487;-78
2022/05/28 00:58:09;;;;;;;7.35;2.10;;;;;;;8.37;98.36;101350.16;682081;28;1379;-77
2022/05/28 00:58:31;;;;;;;5.15;1.85;;;;;;;8.39;99.19;101348.47;682207;28;4335;-77
2022/05/28 00:58:52;;;;;;;6.68;1.90;;;;;;;8.39;99.69;101347.56;680659;29;1502;-78
2022/05/28 00:59:12;;;;;;;5.63;1.88;;;;;;;8.35;99.15;101344.06;680401;29;1242;-78
2022/05/28 00:59:33;;;;;;;6.40;1.80;;;;;;;8.32;98.92;101344.00;679621;29;1314;-78
2022/05/28 00:59:54;;;;;;;6.53;1.70;;;;;;;8.32;98.49;101341.38;679291;29;1236;-78
2022/05/28 01:00:21;;;;;;;6.68;1.90;;;;;;;8.35;98.32;101342.31;680632;29;1675;-78
2022/05/28 01:00:42;;;;;;;7.50;2.03;;;;;;;8.33;98.77;101336.22;680009;29;1008;-78
2022/05/28 01:01:05;;;;;;;5.57;1.90;;;;;;;8.32;98.14;101344.88;679486;29;1770;-78
2022/05/28 01:01:29;;;;;;;7.00;1.92;;;;;;;8.37;97.50;101338.88;675694;29;4381;-80
2022/05/28 01:01:54;;;;;;;6.00;2.10;;;;;;;8.36;98.52;101337.97;676498;29;2068;-78
2022/05/28 01:02:25;;;;;;;6.13;2.00;;;;;;;8.37;98.15;101339.75;683000;28;1313;-78
2022/05/28 01:03:06;;;;;;;7.43;2.10;;;;;;;8.42;96.90;101329.38;681962;28;1491;-78
2022/05/28 01:03:41;;;;;;;7.03;2.00;;;;;;;8.44;99.83;101333.75;681675;29;930;-78
2022/05/28 01:04:31;;;;;;;6.40;2.00;;;;;;;8.41;99.32;101330.25;683301;28;1486;-78
2022/05/28 01:05:11;;;;;;;5.90;1.90;;;;;;;8.44;99.27;101332.88;681198;28;6167;-78
2022/05/28 01:05:43;;;;;;;5.80;1.80;;;;;;;8.45;98.31;101327.72;681471;29;1625;-78
2022/05/28 01:06:18;;;;;;;6.57;1.80;;;;;;;8.43;98.62;101329.44;681344;29;1607;-78
2022/05/28 01:06:55;;;;;;;6.97;1.80;;;;;;;8.41;98.99;101335.47;677424;29;1590;-78
2022/05/28 01:07:25;;;;;;;6.10;1.80;;;;;;;8.41;98.94;101323.28;676389;29;1271;-78
2022/05/28 01:08:02;;;;;;;5.95;1.50;;;;;;;8.39;99.26;101317.22;673486;29;5054;-77
2022/05/28 01:08:57;;;;;;;7.95;2.17;;;;;;;8.42;99.24;101326.78;675097;29;1489;-78
2022/05/28 01:09:42;;;;;;;5.82;1.95;;;;;;;8.50;98.97;101323.47;676946;29;1381;-78
2022/05/28 01:10:21;;;;;;;5.93;1.80;;;;;;;8.48;99.15;101325.16;679835;29;1913;-78
2022/05/28 01:10:44;;;;;;;6.95;1.90;;;;;;;8.50;99.05;101320.88;679355;29;5124;-78
2022/05/28 01:11:07;;;;;;;7.10;1.90;;;;;;;8.52;98.40;101324.34;679774;29;1562;-78
2022/05/28 01:11:37;;;;;;;9.80;1.77;;;;;;;8.55;98.85;101328.75;679796;29;1556;-78
2022/05/28 01:12:14;;;;;;;8.43;2.33;;;;;;;8.50;98.81;101323.47;676590;29;1461;-79
2022/05/28 01:12:45;;;;;;;6.45;1.70;;;;;;;8.48;98.70;101322.56;674470;29;1512;-78
2022/05/28 01:13:18;;;;;;;7.22;2.05;;;;;;;8.49;99.37;101326.94;674126;29;1806;-78
2022/05/28 01:13:50;;;;;;;8.57;1.80;;;;;;;8.55;97.85;101322.66;675610;29;4342;-78
2022/05/28 01:14:29;;;;;;;5.53;1.80;;;;;;;8.55;98.70;101323.53;672990;29;1508;-79
2022/05/28 01:15:00;;;;;;;6.65;1.80;;;;;;;8.57;97.77;101320.94;673257;29;1433;-78
2022/05/28 01:15:31;;;;;;;7.28;2.13;;;;;;;8.59;98.59;101325.31;673112;29;1832;-78
2022/05/28 01:15:59;;;;;;;6.28;2.00;;;;;;;8.57;98.61;101320.94;672829;29;1425;-78
2022/05/28 01:16:49;;;;;;;7.80;1.88;;;;;;;8.55;99.08;101323.53;675032;29;4354;-78
2022/05/28 01:17:17;;;;;;;9.55;1.85;;;;;;;8.54;99.37;101324.38;672343;29;1619;-78
2022/05/28 01:17:47;;;;;;;5.25;1.50;;;;;;;8.55;98.95;101325.28;675292;29;1319;-77
2022/05/28 01:18:21;;;;;;;6.57;2.05;;;;;;;8.57;98.38;101318.34;677131;29;1303;-78
2022/05/28 01:18:52;;;;;;;5.07;1.80;;;;;;;8.57;97.96;101314.00;676415;29;1992;-78
2022/05/28 01:19:15;;;;;;;6.93;1.90;;;;;;;8.60;98.77;101318.38;676852;29;1232;-78
2022/05/28 01:19:53;;;;;;;8.23;1.92;;;;;;;8.55;99.50;101307.03;676325;29;4350;-78
2022/05/28 01:20:31;;;;;;;7.00;1.73;;;;;;;8.54;99.40;101316.56;673936;29;1501;-78
2022/05/28 01:21:00;;;;;;;7.07;1.80;;;;;;;8.52;100.00;101315.69;675144;29;1054;-78
2022/05/28 01:21:30;;;;;;;6.82;1.77;;;;;;;8.55;99.35;101312.25;674189;29;1534;-78
2022/05/28 01:22:10;;;;;;;8.65;2.00;;;;;;;8.56;100.00;101304.44;673900;29;1359;-78
2022/05/28 01:22:54;;;;;;;6.43;2.47;;;;;;;8.58;99.83;101305.31;675777;29;4497;-78
2022/05/28 01:23:26;;;;;;;5.60;1.80;;;;;;;8.59;99.69;101309.69;676537;29;1234;-79
2022/05/28 01:23:55;;;;;;;6.38;2.10;;;;;;;8.56;100.00;101304.44;678873;29;1591;-78
2022/05/28 01:24:33;;;;;;;6.13;2.00;;;;;;;8.62;98.79;101306.25;676867;29;1853;-79
2022/05/28 01:25:23;;;;;;;5.63;1.80;;;;;;;8.62;99.08;101309.72;675024;29;1142;-78
2022/05/28 01:25:50;;;;;;;8.23;1.90;;;;;;;8.66;98.86;101305.44;675562;29;5335;-78
2022/05/28 01:26:48;;;;;;;5.45;1.85;;;;;;;8.61;100.00;101310.59;675871;29;1513;-78
2022/05/28 01:27:14;;;;;;;6.88;1.83;;;;;;;8.59;98.92;101308.81;675422;29;1989;-78
2022/05/28 01:27:42;;;;;;;7.50;2.00;;;;;;;8.62;99.26;101312.31;676805;29;1425;-78
2022/05/28 01:28:10;;;;;;;6.68;1.88;;;;;;;8.63;99.44;101318.44;673157;29;1602;-78
2022/05/28 01:28:39;;;;;;;6.35;1.90;;;;;;;8.60;100.00;101308.84;670736;29;4352;-78
2022/05/28 01:29:06;;;;;;;6.05;2.00;;;;;;;8.58;99.63;101304.47;671754;29;1311;-78
2022/05/28 01:29:34;;;;;;;5.75;2.08;;;;;;;8.57;99.00;101314.00;673026;29;1443;-78
2022/05/28 01:29:58;;;;;;;7.05;2.00;;;;;;;8.57;98.46;101307.91;674486;29;1456;-78
2022/05/28 01:30:19;;;;;;;7.25;2.00;;;;;;;8.59;97.85;101312.28;675200;29;1884;-78
2022/05/28 01:30:42;;;;;;;5.57;1.90;;;;;;;8.58;98.44;101318.34;675632;29;925;-78
2022/05/28 01:31:07;;;;;;;11.23;2.53;;;;;;;8.57;99.02;101313.13;675461;29;1473;-78
2022/05/28 01:31:29;;;;;;;8.77;2.25;;;;;;;8.58;99.94;101302.72;674851;29;4407;-78
2022/05/28 01:31:50;;;;;;;6.20;1.77;;;;;;;8.59;99.03;101311.44;673541;29;1322;-78
2022/05/28 01:32:12;;;;;;;6.97;2.00;;;;;;;8.61;98.73;101314.91;674101;29;1780;-78
2022/05/28 01:32:34;;;;;;;6.82;1.80;;;;;;;8.62;98.01;101316.69;673232;29;1824;-78
2022/05/28 01:32:56;;;;;;;5.82;1.80;;;;;;;8.61;99.52;101314.91;673432;29;1434;-78
2022/05/28 01:33:17;;;;;;;6.55;1.70;;;;;;;8.63;98.67;101311.47;678704;29;1725;-78
2022/05/28 01:33:43;;;;;;;6.85;2.00;;;;;;;8.65;99.74;101321.91;678379;29;1972;-78
2022/05/28 01:34:07;;;;;;;6.32;2.17;;;;;;;8.65;100.00;101312.41;676827;29;1799;-77
2022/05/28 01:34:30;;;;;;;6.85;2.20;;;;;;;8.63;100.00;101308.88;673632;29;4440;-78
2022/05/28 01:34:51;;;;;;;6.70;2.28;;;;;;;8.64;99.81;101309.75;673239;29;1371;-78
2022/05/28 01:35:15;;;;;;;6.18;1.70;;;;;;;8.65;100.00;101314.09;673921;29;1688;-78
2022/05/28 01:35:37;;;;;;;6.35;1.90;;;;;;;8.66;98.60;101315.88;676216;29;1246;-78
2022/05/28 01:35:58;;;;;;;6.70;1.85;;;;;;;8.69;98.63;101302.88;674278;29;1396;-78
2022/05/28 01:36:19;;;;;;;6.53;1.73;;;;;;;8.72;99.28;101308.09;675180;29;1901;-78
2022/05/28 01:36:41;;;;;;;5.30;2.00;;;;;;;8.71;100.00;101310.69;676825;29;1686;-78
2022/05/28 01:37:02;;;;;;;5.57;1.80;;;;;;;8.72;99.79;101304.63;672453;29;1628;-78
2022/05/28 01:37:23;;;;;;;7.72;1.95;;;;;;;8.73;99.51;101309.00;673896;29;4363;-78
2022/05/28 01:37:46;;;;;;;6.47;1.85;;;;;;;8.73;99.18;101312.47;674050;29;1678;-79
2022/05/28 01:38:09;;;;;;;5.82;1.90;;;;;;;8.74;99.35;101310.75;676875;29;1759;-78
2022/05/28 01:38:31;;;;;;;8.18;2.00;;;;;;;8.74;100.00;101311.63;674072;29;1630;-78
2022/05/28 01:38:55;;;;;;;5.85;1.73;;;;;;;8.78;100.00;101299.53;673470;29;1584;-78
2022/05/28 01:39:17;;;;;;;6.18;1.98;;;;;;;8.79;98.56;101304.75;673428;29;1438;-78
2022/05/28 01:39:41;;;;;;;6.10;2.00;;;;;;;8.81;98.52;101305.63;672211;29;1566;-77
2022/05/28 01:40:06;;;;;;;7.47;2.10;;;;;;;8.82;98.21;101303.88;671334;29;1210;-79
2022/05/28 01:40:27;;;;;;;7.15;2.22;;;;;;;8.79;97.97;101304.75;676478;29;4409;-79
2022/05/28 01:40:48;;;;;;;6.50;2.38;;;;;;;8.74;98.72;101309.03;676650;29;1119;-78
2022/05/28 01:41:10;;;;;;;7.95;2.38;;;;;;;8.74;98.62;101301.19;672468;29;1774;-78
2022/05/28 01:41:33;;;;;;;7.75;2.00;;;;;;;8.74;98.55;101301.19;673052;29;1346;-77
2022/05/28 01:41:55;;;;;;;7.63;2.17;;;;;;;8.74;98.40;101309.03;673569;29;1271;-78
2022/05/28 01:42:17;;;;;;;6.10;1.98;;;;;;;8.73;98.85;101309.00;671431;29;1318;-79
2022/05/28 01:42:43;;;;;;;7.10;2.03;;;;;;;8.72;99.61;101305.50;676461;29;1759;-78
2022/05/28 01:43:07;;;;;;;6.28;1.92;;;;;;;8.76;99.73;101309.03;675944;29;1635;-78
2022/05/28 01:43:29;;;;;;;7.68;2.20;;;;;;;8.77;99.22;101306.44;673890;29;4380;-78
2022/05/28 01:43:52;;;;;;;6.78;1.98;;;;;;;8.75;98.92;101305.56;670560;29;1670;-78
2022/05/28 01:44:15;;;;;;;7.47;2.00;;;;;;;8.75;99.07;101300.34;672889;29;1738;-78
2022/05/28 01:44:38;;;;;;;7.68;1.92;;;;;;;8.76;98.70;101306.44;671080;29;1942;-79
2022/05/28 01:45:00;;;;;;;6.38;2.00;;;;;;;8.76;98.33;101304.69;670796;29;1345;-78
2022/05/28 01:45:30;;;;;;;8.20;2.10;;;;;;;8.75;98.66;101307.28;670967;29;1779;-78
2022/05/28 01:45:51;;;;;;;6.70;1.80;;;;;;;8.68;98.90;101304.59;668227;29;1478;-78
2022/05/28 01:46:14;;;;;;;6.50;2.00;;;;;;;8.68;99.19;101303.72;666812;29;1499;-78
2022/05/28 01:46:37;;;;;;;6.88;2.15;;;;;;;8.72;98.36;101305.50;674563;29;4527;-78
2022/05/28 01:46:58;;;;;;;5.70;2.00;;;;;;;8.74;97.75;101308.16;671703;29;1911;-78
2022/05/28 01:47:19;;;;;;;6.50;2.00;;;;;;;8.74;98.43;101310.75;672951;29;1974;-78
2022/05/28 01:47:42;;;;;;;5.47;1.83;;;;;;;8.73;99.40;101307.25;673821;29;1681;-78
2022/05/28 01:48:05;;;;;;;6.38;1.70;;;;;;;8.73;99.65;101302.06;672984;29;1013;-78
2022/05/28 01:48:27;;;;;;;7.82;2.05;;;;;;;8.75;99.02;101302.97;668467;29;1753;-78
2022/05/28 01:48:53;;;;;;;5.95;2.10;;;;;;;8.78;99.49;101299.53;672228;29;1408;-78
2022/05/28 01:49:18;;;;;;;6.60;2.10;;;;;;;8.75;99.87;101300.34;673335;29;1538;-79
2022/05/28 01:49:40;;;;;;;9.18;2.25;;;;;;;8.76;99.55;101304.69;673186;29;4300;-78
2022/05/28 01:50:03;;;;;;;8.15;1.88;;;;;;;8.75;99.18;101302.06;673107;29;1653;-78
2022/05/28 01:50:27;;;;;;;5.88;1.70;;;;;;;8.74;99.90;101301.19;675942;29;1594;-78
2022/05/28 01:50:50;;;;;;;6.30;2.00;;;;;;;8.78;100.00;101305.59;674244;29;1053;-78
2022/05/28 01:51:13;;;;;;;6.90;2.20;;;;;;;8.81;98.62;101296.94;670535;29;1591;-79
2022/05/28 01:51:39;;;;;;;6.88;2.13;;;;;;;8.84;98.78;101304.81;668078;29;1841;-80
2022/05/28 01:52:01;;;;;;;5.10;1.80;;;;;;;8.84;98.86;101303.06;671176;29;1546;-78
2022/05/28 01:52:23;;;;;;;7.40;1.80;;;;;;;8.85;98.22;101311.78;671823;29;4354;-78
2022/05/28 01:52:44;;;;;;;6.57;2.08;;;;;;;8.85;99.02;101297.00;671641;29;1501;-78
2022/05/28 01:53:08;;;;;;;6.68;2.08;;;;;;;8.84;98.10;101295.22;671819;29;1261;-78
2022/05/28 01:54:11;;;;;;;4.88;1.70;;;;;;;8.89;98.58;101290.09;671415;29;1346;-79
2022/05/28 01:54:43;;;;;;;7.57;1.92;;;;;;;8.91;98.53;101297.94;672561;29;1556;-78
2022/05/28 01:55:05;;;;;;;7.05;2.05;;;;;;;8.89;98.86;101297.03;673601;29;1859;-79
2022/05/28 01:55:26;;;;;;;7.38;2.05;;;;;;;8.88;98.23;101295.28;673806;29;4470;-78
2022/05/28 01:55:48;;;;;;;6.75;1.90;;;;;;;8.90;99.27;101301.38;671054;29;1383;-78
2022/05/28 01:56:09;;;;;;;7.65;1.83;;;;;;;8.91;97.06;101297.94;669191;29;1729;-78
2022/05/28 01:56:30;;;;;;;8.32;2.30;;;;;;;8.90;97.49;101299.66;669257;29;1753;-78
2022/05/28 01:56:52;;;;;;;8.43;2.25;;;;;;;8.92;97.55;101291.88;671455;29;1212;-78